Time,TemperatureF,DewpointF,PressureIn,WindDirection,WindDirectionDegrees,WindSpeedMPH,WindSpeedGustMPH,Humidity,HourlyPrecipIn,Conditions,Clouds,dailyrainin,SoftwareType,DateUTC
2013-06-28 00:07:00,76.8,64.0,30.28,SSE,157,0.0,1.5,65,0.00,,,0.00,WUHU21636XXSP,2013-06-28 05:07:00,
2013-06-28 00:17:00,76.3,64.0,30.28,SSE,157,0.0,2.0,66,0.00,,,0.00,WUHU21636XXSP,2013-06-28 05:17:00,
2013-06-28 00:27:00,75.9,64.0,30.28,SSE,157,0.0,0.0,67,0.00,,,0.00,WUHU21636XXSP,2013-06-28 05:27:00,
2013-06-28 00:37:00,75.6,63.7,30.28,SSE,157,0.0,0.0,67,0.00,,,0.00,WUHU21636XXSP,2013-06-28 05:37:00,
2013-06-28 00:47:00,75.4,63.5,30.28,SSE,157,0.0,0.0,67,0.00,,,0.00,WUHU21636XXSP,2013-06-28 05:47:00,
2013-06-28 00:57:00,75.2,63.9,30.28,SSE,157,0.0,0.0,68,0.00,,,0.00,WUHU21636XXSP,2013-06-28 05:57:00,
2013-06-28 01:07:00,75.0,63.7,30.28,SSE,157,0.0,0.0,68,0.00,,,0.00,WUHU21636XXSP,2013-06-28 06:07:00,
2013-06-28 01:17:00,75.0,63.7,30.27,SSE,157,0.0,0.0,68,0.00,,,0.00,WUHU21636XXSP,2013-06-28 06:17:00,
2013-06-28 01:27:00,74.8,63.5,30.27,SSE,157,0.0,0.0,68,0.00,,,0.00,WUHU21636XXSP,2013-06-28 06:27:00,
2013-06-28 01:37:00,74.5,63.5,30.27,SSE,157,0.0,0.0,69,0.00,,,0.00,WUHU21636XXSP,2013-06-28 06:37:00,
2013-06-28 01:47:00,73.9,63.5,30.27,SSE,157,0.0,0.0,70,0.00,,,0.00,WUHU21636XXSP,2013-06-28 06:47:00,
2013-06-28 01:57:00,73.8,63.3,30.28,SSE,157,0.0,0.0,70,0.00,,,0.00,WUHU21636XXSP,2013-06-28 06:57:00,
2013-06-28 02:07:00,73.6,63.1,30.28,SSE,157,0.0,0.0,70,0.00,,,0.00,WUHU21636XXSP,2013-06-28 07:07:00,
2013-06-28 02:17:00,73.2,63.3,30.28,SW,225,0.0,0.4,71,0.00,,,0.00,WUHU21636XXSP,2013-06-28 07:17:00,
2013-06-28 02:27:00,72.5,63.3,30.28,NW,315,0.0,0.4,73,0.00,,,0.00,WUHU21636XXSP,2013-06-28 07:27:00,
2013-06-28 02:37:00,72.1,63.0,30.28,NW,315,0.0,3.3,74,0.00,,,0.00,WUHU21636XXSP,2013-06-28 07:37:00,
2013-06-28 02:47:00,71.8,63.3,30.28,NNW,337,5.1,5.1,75,0.00,,,0.00,WUHU21636XXSP,2013-06-28 07:47:00,
2013-06-28 02:57:00,71.4,63.3,30.28,NW,315,0.4,5.1,76,0.00,,,0.00,WUHU21636XXSP,2013-06-28 07:57:00,
2013-06-28 03:07:00,71.2,63.1,30.28,NW,315,3.8,4.9,76,0.00,,,0.00,WUHU21636XXSP,2013-06-28 08:07:00,
2013-06-28 03:17:00,71.1,63.3,30.29,NW,315,3.8,7.8,77,0.00,,,0.00,WUHU21636XXSP,2013-06-28 08:17:00,
2013-06-28 03:27:00,70.9,63.1,30.28,NNW,337,1.3,3.8,77,0.00,,,0.00,WUHU21636XXSP,2013-06-28 08:27:00,
2013-06-28 03:37:00,70.7,63.0,30.28,North,0,3.3,3.3,78,0.00,,,0.00,WUHU21636XXSP,2013-06-28 08:37:00,
2013-06-28 03:47:00,70.7,63.3,30.28,North,0,2.9,4.2,78,0.00,,,0.00,WUHU21636XXSP,2013-06-28 08:47:00,
2013-06-28 03:58:00,70.5,63.1,30.28,North,0,0.0,3.3,78,0.00,,,0.00,WUHU21636XXSP,2013-06-28 08:58:00,
2013-06-28 04:08:00,70.5,63.1,30.28,North,0,0.0,1.7,78,0.00,,,0.00,WUHU21636XXSP,2013-06-28 09:08:00,
2013-06-28 04:18:00,70.5,63.1,30.28,NNE,22,4.6,4.6,78,0.00,,,0.00,WUHU21636XXSP,2013-06-28 09:18:00,
2013-06-28 04:28:00,70.3,63.0,30.28,NNE,22,4.4,9.3,78,0.00,,,0.00,WUHU21636XXSP,2013-06-28 09:28:00,
2013-06-28 04:38:00,70.5,63.5,30.28,NNE,22,6.2,7.1,79,0.00,,,0.00,WUHU21636XXSP,2013-06-28 09:38:00,
2013-06-28 04:48:00,70.3,63.3,30.28,North,0,2.6,6.9,79,0.00,,,0.00,WUHU21636XXSP,2013-06-28 09:48:00,
2013-06-28 04:58:00,70.3,63.0,30.28,North,0,2.4,5.3,78,0.00,,,0.00,WUHU21636XXSP,2013-06-28 09:58:00,
2013-06-28 05:08:00,70.5,63.1,30.28,North,0,0.0,4.0,78,0.00,,,0.00,WUHU21636XXSP,2013-06-28 10:08:00,
2013-06-28 05:18:00,70.3,63.0,30.28,North,0,0.0,0.0,77,0.00,,,0.00,WUHU21636XXSP,2013-06-28 10:18:00,
2013-06-28 05:28:00,69.4,62.2,30.28,North,0,1.7,1.7,78,0.00,,,0.00,WUHU21636XXSP,2013-06-28 10:28:00,
2013-06-28 05:38:00,69.1,61.9,30.28,North,0,0.0,1.7,79,0.00,,,0.00,WUHU21636XXSP,2013-06-28 10:38:00,
2013-06-28 05:48:00,68.9,62.1,30.28,North,0,0.0,0.0,79,0.00,,,0.00,WUHU21636XXSP,2013-06-28 10:48:00,
2013-06-28 05:58:00,67.8,61.7,30.28,WNW,292,2.0,4.6,81,0.00,,,0.00,WUHU21636XXSP,2013-06-28 10:58:00,
2013-06-28 06:08:00,66.9,61.5,30.29,NW,315,0.6,5.3,83,0.00,,,0.00,WUHU21636XXSP,2013-06-28 11:08:00,
2013-06-28 06:18:00,66.6,61.5,30.29,NW,315,2.4,3.3,84,0.00,,,0.00,WUHU21636XXSP,2013-06-28 11:18:00,
2013-06-28 06:28:00,66.7,61.7,30.30,NW,315,2.9,3.1,84,0.00,,,0.00,WUHU21636XXSP,2013-06-28 11:28:00,
2013-06-28 06:38:00,66.9,61.9,30.30,NW,315,1.1,3.3,84,0.00,,,0.00,WUHU21636XXSP,2013-06-28 11:38:00,
2013-06-28 06:48:00,66.6,61.5,30.30,West,270,3.1,5.1,84,0.00,,,0.00,WUHU21636XXSP,2013-06-28 11:48:00,
2013-06-28 06:58:00,66.4,61.3,30.31,NW,315,3.3,3.5,84,0.00,,,0.00,WUHU21636XXSP,2013-06-28 11:58:00,
2013-06-28 07:08:00,66.4,61.7,30.31,West,270,3.1,4.4,85,0.00,,,0.00,WUHU21636XXSP,2013-06-28 12:08:00,
2013-06-28 07:18:00,66.9,62.2,30.30,NW,315,2.4,3.8,85,0.00,,,0.00,WUHU21636XXSP,2013-06-28 12:18:00,
2013-06-28 07:28:00,67.6,63.0,30.30,North,0,4.2,4.2,85,0.00,,,0.00,WUHU21636XXSP,2013-06-28 12:28:00,
2013-06-28 07:38:00,68.7,63.5,30.30,NNE,22,1.5,6.2,84,0.00,,,0.00,WUHU21636XXSP,2013-06-28 12:38:00,
2013-06-28 07:48:00,69.3,64.0,30.30,NNE,22,0.0,3.5,84,0.00,,,0.00,WUHU21636XXSP,2013-06-28 12:48:00,
2013-06-28 07:58:00,69.8,64.2,30.30,NNE,22,0.0,1.7,83,0.00,,,0.00,WUHU21636XXSP,2013-06-28 12:58:00,
2013-06-28 08:08:00,70.2,64.2,30.31,NNE,22,0.0,1.5,82,0.00,,,0.00,WUHU21636XXSP,2013-06-28 13:08:00,
2013-06-28 08:18:00,70.2,64.2,30.31,NNE,22,2.2,2.2,82,0.00,,,0.00,WUHU21636XXSP,2013-06-28 13:18:00,
2013-06-28 08:28:00,70.5,64.9,30.31,West,270,1.1,2.2,83,0.00,,,0.00,WUHU21636XXSP,2013-06-28 13:28:00,
2013-06-28 08:38:00,70.9,65.3,30.31,West,270,4.0,4.6,83,0.00,,,0.00,WUHU21636XXSP,2013-06-28 13:38:00,
2013-06-28 08:48:00,71.2,65.7,30.31,West,270,4.2,4.2,83,0.00,,,0.00,WUHU21636XXSP,2013-06-28 13:48:00,
2013-06-28 08:58:00,71.8,65.8,30.31,West,270,2.9,4.2,81,0.00,,,0.00,WUHU21636XXSP,2013-06-28 13:58:00,
2013-06-28 09:08:00,72.3,65.8,30.31,WNW,292,2.9,3.3,80,0.00,,,0.00,WUHU21636XXSP,2013-06-28 14:08:00,
2013-06-28 09:18:00,73.0,66.6,30.31,NW,315,0.8,2.9,80,0.00,,,0.00,WUHU21636XXSP,2013-06-28 14:18:00,
2013-06-28 09:28:00,74.1,67.1,30.31,North,0,4.4,4.4,79,0.00,,,0.00,WUHU21636XXSP,2013-06-28 14:28:00,
2013-06-28 09:38:00,75.0,67.6,30.31,NNE,22,3.1,4.4,78,0.00,,,0.00,WUHU21636XXSP,2013-06-28 14:38:00,
2013-06-28 09:48:00,76.1,67.5,30.30,NNE,22,5.5,8.2,75,0.00,,,0.00,WUHU21636XXSP,2013-06-28 14:48:00,
2013-06-28 09:58:00,76.8,67.8,30.31,ENE,67,4.9,5.5,74,0.00,,,0.00,WUHU21636XXSP,2013-06-28 14:58:00,
2013-06-28 10:08:00,78.4,66.4,30.30,North,0,8.9,13.4,67,0.00,,,0.00,WUHU21636XXSP,2013-06-28 15:08:00,
2013-06-28 10:18:00,79.0,67.8,30.30,ESE,112,0.0,12.5,70,0.00,,,0.00,WUHU21636XXSP,2013-06-28 15:18:00,
2013-06-28 10:28:00,79.5,67.1,30.29,NE,45,4.4,4.4,66,0.00,,,0.00,WUHU21636XXSP,2013-06-28 15:28:00,
2013-06-28 10:38:00,79.9,67.5,30.30,NE,45,5.1,11.1,66,0.00,,,0.00,WUHU21636XXSP,2013-06-28 15:38:00,
2013-06-28 10:48:00,80.4,67.1,30.29,NE,45,9.1,11.4,64,0.00,,,0.00,WUHU21636XXSP,2013-06-28 15:48:00,
2013-06-28 10:58:00,80.8,67.3,30.29,East,90,2.9,9.1,63,0.00,,,0.00,WUHU21636XXSP,2013-06-28 15:58:00,
2013-06-28 11:08:00,81.1,67.3,30.29,NE,45,3.8,10.2,63,0.00,,,0.00,WUHU21636XXSP,2013-06-28 16:08:00,
2013-06-28 11:18:00,81.7,66.7,30.29,ESE,112,3.5,9.8,61,0.00,,,0.00,WUHU21636XXSP,2013-06-28 16:18:00,
2013-06-28 11:28:00,81.9,66.0,30.29,NE,45,2.9,11.4,59,0.00,,,0.00,WUHU21636XXSP,2013-06-28 16:28:00,
2013-06-28 11:38:00,82.2,65.8,30.29,East,90,3.5,12.0,57,0.00,,,0.00,WUHU21636XXSP,2013-06-28 16:38:00,
2013-06-28 11:48:00,82.6,64.6,30.29,East,90,4.6,4.6,55,0.00,,,0.00,WUHU21636XXSP,2013-06-28 16:48:00,
2013-06-28 11:58:00,82.9,64.9,30.29,SE,135,0.6,13.6,53,0.00,,,0.00,WUHU21636XXSP,2013-06-28 16:58:00,
2013-06-28 12:08:00,83.1,64.6,30.29,SE,135,2.4,11.6,53,0.00,,,0.00,WUHU21636XXSP,2013-06-28 17:08:00,
2013-06-28 12:18:00,83.5,63.3,30.29,East,90,6.7,11.8,51,0.00,,,0.00,WUHU21636XXSP,2013-06-28 17:18:00,
2013-06-28 12:28:00,83.8,63.7,30.29,ESE,112,10.0,13.4,51,0.00,,,0.00,WUHU21636XXSP,2013-06-28 17:28:00,
2013-06-28 12:38:00,84.4,61.9,30.29,ESE,112,4.0,15.8,47,0.00,,,0.00,WUHU21636XXSP,2013-06-28 17:38:00,
2013-06-28 12:48:00,85.1,60.6,30.28,NE,45,8.0,16.1,44,0.00,,,0.00,WUHU21636XXSP,2013-06-28 17:48:00,
2013-06-28 12:58:00,85.6,61.7,30.28,ENE,67,8.7,16.5,45,0.00,,,0.00,WUHU21636XXSP,2013-06-28 17:58:00,
2013-06-28 13:08:00,86.2,61.5,30.28,ENE,67,1.3,15.6,44,0.00,,,0.00,WUHU21636XXSP,2013-06-28 18:08:00,
2013-06-28 13:18:00,86.7,60.8,30.27,NE,45,3.3,12.7,42,0.00,,,0.00,WUHU21636XXSP,2013-06-28 18:18:00,
2013-06-28 13:28:00,87.4,58.6,30.27,NE,45,7.1,7.3,38,0.00,,,0.00,WUHU21636XXSP,2013-06-28 18:28:00,
2013-06-28 13:38:00,87.6,61.0,30.27,ENE,67,8.7,19.0,41,0.00,,,0.00,WUHU21636XXSP,2013-06-28 18:38:00,
2013-06-28 13:48:00,88.3,59.4,30.27,NE,45,7.3,14.7,38,0.00,,,0.00,WUHU21636XXSP,2013-06-28 18:48:00,
2013-06-28 13:58:00,88.9,58.3,30.27,NE,45,2.9,14.9,36,0.00,,,0.00,WUHU21636XXSP,2013-06-28 18:58:00,
2013-06-28 14:08:00,89.2,58.5,30.26,North,0,9.8,16.3,36,0.00,,,0.00,WUHU21636XXSP,2013-06-28 19:08:00,
2013-06-28 14:18:00,89.8,57.4,30.26,NNE,22,9.1,18.3,34,0.00,,,0.00,WUHU21636XXSP,2013-06-28 19:18:00,
2013-06-28 14:28:00,90.1,60.1,30.26,NE,45,5.3,17.0,37,0.00,,,0.00,WUHU21636XXSP,2013-06-28 19:28:00,
2013-06-28 14:38:00,90.5,59.5,30.25,ENE,67,4.0,17.4,36,0.00,,,0.00,WUHU21636XXSP,2013-06-28 19:38:00,
2013-06-28 14:48:00,90.7,57.4,30.25,NE,45,8.2,19.6,34,0.00,,,0.00,WUHU21636XXSP,2013-06-28 19:48:00,
2013-06-28 14:58:00,91.2,60.3,30.24,East,90,4.2,15.6,36,0.00,,,0.00,WUHU21636XXSP,2013-06-28 19:58:00,
2013-06-28 15:08:00,91.0,57.7,30.25,NE,45,12.3,21.0,32,0.00,,,0.00,WUHU21636XXSP,2013-06-28 20:08:00,
2013-06-28 15:18:00,91.0,57.7,30.24,ENE,67,8.9,16.3,32,0.00,,,0.00,WUHU21636XXSP,2013-06-28 20:18:00,
2013-06-28 15:28:00,91.0,57.7,30.24,North,0,7.3,18.3,33,0.00,,,0.00,WUHU21636XXSP,2013-06-28 20:28:00,
2013-06-28 15:38:00,91.8,59.2,30.24,NNE,22,0.4,15.6,34,0.00,,,0.00,WUHU21636XXSP,2013-06-28 20:38:00,
2013-06-28 15:48:00,91.8,57.6,30.24,ENE,67,8.2,17.2,35,0.00,,,0.00,WUHU21636XXSP,2013-06-28 20:48:00,
2013-06-28 15:58:00,91.9,57.7,30.24,NE,45,11.4,23.2,31,0.00,,,0.00,WUHU21636XXSP,2013-06-28 20:58:00,
2013-06-28 16:08:00,91.6,56.7,30.24,NNE,22,12.7,20.8,31,0.00,,,0.00,WUHU21636XXSP,2013-06-28 21:08:00,
2013-06-28 16:18:00,91.9,57.7,30.23,NE,45,3.5,17.4,32,0.00,,,0.00,WUHU21636XXSP,2013-06-28 21:18:00,
2013-06-28 16:28:00,92.1,57.0,30.23,NE,45,5.3,22.1,32,0.00,,,0.00,WUHU21636XXSP,2013-06-28 21:28:00,
2013-06-28 16:38:00,92.1,57.9,30.23,East,90,3.8,22.3,32,0.00,,,0.00,WUHU21636XXSP,2013-06-28 21:38:00,
2013-06-28 16:48:00,92.1,57.9,30.22,ENE,67,5.1,17.0,30,0.00,,,0.00,WUHU21636XXSP,2013-06-28 21:48:00,
2013-06-28 16:58:00,92.1,57.0,30.23,NE,45,10.7,14.9,31,0.00,,,0.00,WUHU21636XXSP,2013-06-28 21:58:00,
2013-06-28 17:08:00,92.1,57.0,30.22,NE,45,2.9,19.2,31,0.00,,,0.00,WUHU21636XXSP,2013-06-28 22:08:00,
2013-06-28 17:18:00,92.1,57.0,30.21,NE,45,4.0,21.4,31,0.00,,,0.00,WUHU21636XXSP,2013-06-28 22:18:00,
2013-06-28 17:28:00,92.1,56.3,30.22,NE,45,5.1,16.3,31,0.00,,,0.00,WUHU21636XXSP,2013-06-28 22:28:00,
2013-06-28 17:38:00,91.8,58.3,30.21,East,90,9.1,10.0,33,0.00,,,0.00,WUHU21636XXSP,2013-06-28 22:38:00,
2013-06-28 17:49:00,91.9,59.4,30.21,NNE,22,9.8,15.6,33,0.00,,,0.00,WUHU21636XXSP,2013-06-28 22:49:00,
2013-06-28 17:59:00,91.9,59.4,30.21,NE,45,4.2,15.4,34,0.00,,,0.00,WUHU21636XXSP,2013-06-28 22:59:00,
2013-06-28 18:09:00,91.2,57.9,30.21,ENE,67,9.6,17.8,33,0.00,,,0.00,WUHU21636XXSP,2013-06-28 23:09:00,
2013-06-28 18:19:00,91.0,58.5,30.21,ESE,112,10.0,19.2,35,0.00,,,0.00,WUHU21636XXSP,2013-06-28 23:19:00,
2013-06-28 18:29:00,90.7,57.4,30.21,ENE,67,8.7,18.3,35,0.00,,,0.00,WUHU21636XXSP,2013-06-28 23:29:00,
2013-06-28 18:39:00,90.3,57.9,30.21,ENE,67,7.1,15.6,35,0.00,,,0.00,WUHU21636XXSP,2013-06-28 23:39:00,
2013-06-28 18:49:00,90.1,56.8,30.21,ENE,67,4.2,14.7,33,0.00,,,0.00,WUHU21636XXSP,2013-06-28 23:49:00,
2013-06-28 18:59:00,89.6,57.2,30.21,ENE,67,4.2,14.0,34,0.00,,,0.00,WUHU21636XXSP,2013-06-28 23:59:00,
2013-06-28 19:09:00,89.4,57.9,30.21,NE,45,2.0,13.6,35,0.00,,,0.00,WUHU21636XXSP,2013-06-29 00:09:00,
2013-06-28 19:19:00,89.2,56.8,30.21,ESE,112,6.7,14.0,34,0.00,,,0.00,WUHU21636XXSP,2013-06-29 00:19:00,
2013-06-28 19:29:00,88.9,56.7,30.21,ENE,67,5.5,14.7,34,0.00,,,0.00,WUHU21636XXSP,2013-06-29 00:29:00,
2013-06-28 19:39:00,88.3,57.0,30.21,East,90,7.3,16.1,35,0.00,,,0.00,WUHU21636XXSP,2013-06-29 00:39:00,
2013-06-28 19:49:00,87.8,56.5,30.21,ENE,67,1.1,17.2,35,0.00,,,0.00,WUHU21636XXSP,2013-06-29 00:49:00,
2013-06-28 19:59:00,87.4,56.1,30.21,NE,45,1.5,10.5,35,0.00,,,0.00,WUHU21636XXSP,2013-06-29 00:59:00,
2013-06-28 20:09:00,86.9,55.8,30.21,ENE,67,3.5,6.4,36,0.00,,,0.00,WUHU21636XXSP,2013-06-29 01:09:00,
2013-06-28 20:19:00,86.5,56.1,30.21,East,90,4.4,6.2,37,0.00,,,0.00,WUHU21636XXSP,2013-06-29 01:19:00,
2013-06-28 20:29:00,86.0,56.5,30.21,East,90,3.1,12.9,37,0.00,,,0.00,WUHU21636XXSP,2013-06-29 01:29:00,
2013-06-28 20:39:00,85.6,57.0,30.21,ENE,67,3.3,11.4,38,0.00,,,0.00,WUHU21636XXSP,2013-06-29 01:39:00,
2013-06-28 20:49:00,85.1,57.4,30.21,ENE,67,3.5,8.7,39,0.00,,,0.00,WUHU21636XXSP,2013-06-29 01:49:00,
2013-06-28 20:59:00,84.6,56.8,30.21,East,90,3.5,7.6,39,0.00,,,0.00,WUHU21636XXSP,2013-06-29 01:59:00,
2013-06-28 21:09:00,83.8,56.1,30.21,East,90,3.3,4.9,39,0.00,,,0.00,WUHU21636XXSP,2013-06-29 02:09:00,
2013-06-28 21:19:00,83.1,55.6,30.21,ENE,67,2.9,4.6,39,0.00,,,0.00,WUHU21636XXSP,2013-06-29 02:19:00,
2013-06-28 21:29:00,82.6,55.8,30.21,ENE,67,4.2,4.9,40,0.00,,,0.00,WUHU21636XXSP,2013-06-29 02:29:00,
2013-06-28 21:39:00,82.0,55.4,30.22,ENE,67,6.2,6.4,40,0.00,,,0.00,WUHU21636XXSP,2013-06-29 02:39:00,
2013-06-28 21:49:00,81.1,54.5,30.22,East,90,4.0,6.2,40,0.00,,,0.00,WUHU21636XXSP,2013-06-29 02:49:00,
2013-06-28 21:59:00,80.4,54.5,30.22,ESE,112,2.9,4.0,41,0.00,,,0.00,WUHU21636XXSP,2013-06-29 02:59:00,
2013-06-28 22:09:00,80.2,55.0,30.22,ESE,112,3.8,4.2,42,0.00,,,0.00,WUHU21636XXSP,2013-06-29 03:09:00,
2013-06-28 22:19:00,79.9,54.7,30.22,ESE,112,4.2,4.2,42,0.00,,,0.00,WUHU21636XXSP,2013-06-29 03:19:00,
2013-06-28 22:29:00,79.5,54.9,30.22,ESE,112,1.5,4.2,43,0.00,,,0.00,WUHU21636XXSP,2013-06-29 03:29:00,
2013-06-28 22:39:00,79.3,55.4,30.22,ESE,112,4.0,4.0,44,0.00,,,0.00,WUHU21636XXSP,2013-06-29 03:39:00,
2013-06-28 22:49:00,78.6,54.7,30.22,ENE,67,4.2,4.2,44,0.00,,,0.00,WUHU21636XXSP,2013-06-29 03:49:00,
2013-06-28 22:59:00,78.4,55.2,30.23,ENE,67,2.0,4.6,45,0.00,,,0.00,WUHU21636XXSP,2013-06-29 03:59:00,
2013-06-28 23:09:00,78.1,55.4,30.23,ENE,67,2.2,3.5,46,0.00,,,0.00,WUHU21636XXSP,2013-06-29 04:09:00,
2013-06-28 23:19:00,77.5,55.0,30.23,East,90,3.8,3.8,46,0.00,,,0.00,WUHU21636XXSP,2013-06-29 04:19:00,
2013-06-28 23:29:00,76.6,54.9,30.24,ENE,67,2.6,3.8,48,0.00,,,0.00,WUHU21636XXSP,2013-06-29 04:29:00,
2013-06-28 23:39:00,76.1,54.9,30.24,ENE,67,0.0,2.6,49,0.00,,,0.00,WUHU21636XXSP,2013-06-29 04:39:00,
2013-06-28 23:49:00,75.6,55.6,30.24,ENE,67,0.8,1.3,50,0.00,,,0.00,WUHU21636XXSP,2013-06-29 04:49:00,
2013-06-28 23:59:00,75.0,55.2,30.24,ENE,67,0.8,3.1,50,0.00,,,0.00,WUHU21636XXSP,2013-06-29 04:59:00,